Em acidente com avião comercial no Irã, vídeos mostram pessoas descendo na rua

Vídeos gravados logo após um acidente com um avião comercial nessa segunda-feira, 27 de janeiro, no Irã, mostram passageiros descendo da aeronave na rua, uma vez que a jato ultrapassou os limites do aeroporto na ocorrência.

Acidente MD-83 Caspian Airlines Irã Rua bloqueada
O jato comercial travando a estrada após o acidente

Acidente MD-83 Caspian Airlines Irã Passageiros na rua
Passageiros desembarcam na rua

A aeronave envolvida foi o McDonnell Douglas MD-83 registrado com a matrícula EP-CPZ, da companhia aérea iraniana Caspian Airlines, quando estava executando o voo de número IV-6936 de Teerã-Mehrabad para Mahshahr (ambas no Irã) com 144 pessoas a bordo.

O avião pousou na pista 13 de Mahshahr, com distância de pouso disponível de 2695 metros / 8840 pés, por volta das 07:50 no horário local (04:20 no horário GMT), mas ultrapassou o final da pista, rompeu a cerca do perímetro do aeroporto e parou na estrada cerca de 170 metros além do fim da pista, conforme área indicada em branco na imagem a seguir.

Aeroporto Mahshahr Googla Maps Acidente MD-83
Vista aérea do Aeroporto Mahshahr – Imagem: Google Maps

Com todos os trens de pouso colapsados, a aeronave foi evacuada diretamente na rua enquanto os serviços de emergência eram chamados. Não há relatos de feridos.

Acidente MD-83 Caspian Airlines Irã

Acidente MD-83 Caspian Airlines Irã

Segundo o FlightGlobal, as autoridades iranianas já enviaram uma equipe de investigadores para o local do acidente.

As condições de visibilidade eram muito boas no momento do acidente, mas havia vento com componente de cauda (280 a 290º), embora de baixa intensidade (6 nós, ou 11 km/h), conforme indicam os dados meteorológicos (METAR):

  • OIAM 270400Z 28006KT CAVOK 06/04 Q1023=
  • OIAM 270500Z 29006KT 7000 NSC 07/05 Q1023=

Veja a seguir o vídeo do momento em que os passageiros desembarcavam na rua logo após o acidente acontecer:

Murilo Bassetohttp://www.aeroin.net
Formado em Engenharia Mecânica e Pós-Graduado em Engenharia de Manutenção Aeronáutica, possui mais de 6 anos de experiência na área controle técnico de manutenção aeronáutica.

Veja outras histórias

Embraer entrega um dos últimos E190 da primeira geração

0
Mais um capítulo na história de sucesso da Embraer se encaminha para o fechamento, com a entrega do último avião E190 da Air France - HOP!